King And Queen Court House, Virginia
Current Conditions -  °F | °C
As of 12:15 PM on Sunday 21 Dec 2014 (Local Time) from KFYJ Reporting Station
Overcast Overcast  
Wind Chill: 43°   Ceiling: 7000
Heat Index: 43°   Visibility: 10mi
Dew Point: 26°   Wind: 3mph
Humidity: 51%   Direction: 360°N
Pressure: 30.36"   Gusts: NA
Location:  37.67°N, 76.88°W
Report Text: KFYJ 211715Z AUTO 36003KT 10SM OVC070 06/M03 A3036 RMK AO2 T00621034
Loading
Personal Weather Stations






























Interactive Weather Map New forecast layout! Learn more

10-Day Weather Forecast

Advertisements
Track Severe Weather on mobile